Time;durP1;ratioP1;P1;durP2;ratioP2;P2;SDS_P1;SDS_P2;PMS_P1;PMS_P2;Temp;Humidity;BMP_temperature;BMP_pressure;BME280_temperature;BME280_humidity;BME280_pressure;Samples;Min_cycle;Max_cycle;Signal;HPM_P1;HPM_P2
2021/06/05 00:00:55;;;;;;;;;;;;;;;8.37;100.00;99888.13;5037206;28;20450;-85
2021/06/05 00:03:22;;;;;;;;;;;;;;;8.31;100.00;99890.50;5086752;28;19924;-85
2021/06/05 00:05:59;;;;;;;;;;;;;;;8.23;100.00;99888.84;5053548;28;19932;-85
2021/06/05 00:08:27;;;;;;;;;;;;;;;8.09;100.00;99888.72;5053421;28;19924;-85
2021/06/05 00:10:59;;;;;;;;;;;;;;;7.73;100.00;99892.41;5036703;28;19936;-85
2021/06/05 00:13:34;;;;;;;;;;;;;;;7.91;100.00;99889.75;5069880;28;19924;-85
2021/06/05 00:16:02;;;;;;;;;;;;;;;8.03;100.00;99890.25;5069850;28;19928;-85
2021/06/05 00:18:30;;;;;;;;;;;;;;;7.99;100.00;99897.00;5069918;28;19924;-85
2021/06/05 00:20:57;;;;;;;;;;;;;;;7.99;100.00;99895.03;5023080;28;19924;-85
2021/06/05 00:23:25;;;;;;;;;;;;;;;8.01;100.00;99892.63;5054300;28;19982;-85
2021/06/05 00:25:56;;;;;;;;;;;;;;;8.06;100.00;99889.50;5054072;28;19925;-85
2021/06/05 00:28:25;;;;;;;;;;;;;;;8.19;100.00;99892.75;5020803;28;20376;-85
2021/06/05 00:30:53;;;;;;;;;;;;;;;8.15;100.00;99887.16;5052859;28;19947;-85
2021/06/05 00:33:20;;;;;;;;;;;;;;;8.13;100.00;99889.56;5052688;28;19931;-85
2021/06/05 00:35:48;;;;;;;;;;;;;;;7.99;100.00;99886.66;5052820;28;19932;-85
2021/06/05 00:38:15;;;;;;;;;;;;;;;8.06;100.00;99883.13;5052167;28;19968;-85
2021/06/05 00:40:44;;;;;;;;;;;;;;;7.91;100.00;99882.22;5033334;28;19925;-85
2021/06/05 00:43:13;;;;;;;;;;;;;;;7.64;100.00;99883.59;5036085;28;19925;-85
2021/06/05 00:45:43;;;;;;;;;;;;;;;7.73;100.00;99872.94;5052623;28;20127;-85
2021/06/05 00:48:14;;;;;;;;;;;;;;;7.70;100.00;99872.91;5069328;28;19931;-85
2021/06/05 00:50:49;;;;;;;;;;;;;;;7.78;100.00;99869.81;5070513;28;20395;-85
2021/06/05 00:53:19;;;;;;;;;;;;;;;7.69;100.00;99868.53;5052254;28;19947;-85
2021/06/05 00:55:48;;;;;;;;;;;;;;;7.42;100.00;99870.69;5036118;28;19925;-85
2021/06/05 00:58:17;;;;;;;;;;;;;;;7.36;100.00;99866.66;5053486;28;19924;-85
2021/06/05 01:00:49;;;;;;;;;;;;;;;7.33;100.00;99861.84;5036079;28;19952;-86
2021/06/05 01:03:18;;;;;;;;;;;;;;;7.16;100.00;99862.50;5052493;28;19925;-86
2021/06/05 01:05:51;;;;;;;;;;;;;;;7.18;100.00;99868.44;5052372;28;19974;-86
2021/06/05 01:08:18;;;;;;;;;;;;;;;7.12;100.00;99867.19;5035726;28;20299;-85
2021/06/05 01:10:50;;;;;;;;;;;;;;;7.11;100.00;99866.41;5052458;28;19955;-85
2021/06/05 01:13:18;;;;;;;;;;;;;;;7.24;100.00;99869.69;5052105;28;20027;-85
2021/06/05 01:15:56;;;;;;;;;;;;;;;7.26;100.00;99861.78;5018937;28;19947;-85
2021/06/05 01:18:32;;;;;;;;;;;;;;;7.33;100.00;99865.44;5035711;28;20302;-85
2021/06/05 01:21:16;;;;;;;;;;;;;;;7.46;100.00;99865.16;5038897;28;19964;-86
2021/06/05 01:23:55;;;;;;;;;;;;;;;7.36;100.00;99861.88;5035060;28;19928;-85
2021/06/05 01:26:25;;;;;;;;;;;;;;;7.18;100.00;99857.34;5019407;28;20303;-85
2021/06/05 01:29:08;;;;;;;;;;;;;;;7.14;100.00;99859.28;5051662;28;19925;-86
2021/06/05 01:31:38;;;;;;;;;;;;;;;7.17;100.00;99858.53;5080535;28;19925;-85
2021/06/05 01:34:06;;;;;;;;;;;;;;;7.21;100.00;99859.34;5050903;28;20183;-85
2021/06/05 01:36:36;;;;;;;;;;;;;;;7.22;100.00;99856.19;5051731;28;20319;-86
2021/06/05 01:39:06;;;;;;;;;;;;;;;7.14;100.00;99854.53;5034703;28;20294;-85
2021/06/05 01:41:35;;;;;;;;;;;;;;;6.94;100.00;99855.91;5051694;28;19948;-85
2021/06/05 01:44:04;;;;;;;;;;;;;;;6.87;100.00;99855.03;5051545;28;20307;-85
2021/06/05 01:46:36;;;;;;;;;;;;;;;6.89;100.00;99849.91;5068726;28;20295;-85
2021/06/05 01:49:06;;;;;;;;;;;;;;;6.80;100.00;99841.84;5068064;28;20055;-86
2021/06/05 01:51:40;;;;;;;;;;;;;;;6.77;100.00;99850.16;5051462;28;19956;-86
2021/06/05 01:54:12;;;;;;;;;;;;;;;6.65;100.00;99850.41;5035130;28;19925;-86
2021/06/05 01:56:46;;;;;;;;;;;;;;;6.63;100.00;99855.53;5051589;28;20451;-86
2021/06/05 01:59:35;;;;;;;;;;;;;;;6.75;100.00;99858.06;5039406;28;20502;-86
2021/06/05 02:02:13;;;;;;;;;;;;;;;6.81;100.00;99851.00;5020667;28;20009;-85
2021/06/05 02:04:42;;;;;;;;;;;;;;;6.79;100.00;99853.34;5034676;28;19924;-86
2021/06/05 02:07:14;;;;;;;;;;;;;;;6.72;100.00;99844.94;5051104;28;19928;-86
2021/06/05 02:09:45;;;;;;;;;;;;;;;6.67;100.00;99842.47;5051297;28;20511;-86
2021/06/05 02:12:32;;;;;;;;;;;;;;;6.49;100.00;99845.06;5050965;28;20384;-86
2021/06/05 02:15:39;;;;;;;;;;;;;;;6.52;100.00;99841.53;5034727;28;20379;-86
2021/06/05 02:18:14;;;;;;;;;;;;;;;6.56;100.00;99844.31;5034728;28;19925;-86
2021/06/05 02:20:55;;;;;;;;;;;;;;;6.46;100.00;99845.81;5052504;28;19924;-86
2021/06/05 02:23:28;;;;;;;;;;;;;;;6.54;100.00;99841.16;5053980;28;20082;-86
2021/06/05 02:25:58;;;;;;;;;;;;;;;6.53;100.00;99850.63;5035680;28;19950;-86
2021/06/05 02:28:28;;;;;;;;;;;;;;;6.57;100.00;99845.94;5052333;28;19924;-87
2021/06/05 02:30:56;;;;;;;;;;;;;;;6.59;100.00;99843.56;5035643;28;20024;-86
2021/06/05 02:33:23;;;;;;;;;;;;;;;6.62;100.00;99842.84;5038388;28;19925;-87
2021/06/05 02:35:51;;;;;;;;;;;;;;;6.61;100.00;99841.22;5052113;28;19925;-86
2021/06/05 02:38:31;;;;;;;;;;;;;;;6.41;100.00;99848.91;5035602;28;19929;-86
2021/06/05 02:41:02;;;;;;;;;;;;;;;6.32;100.00;99842.03;5052147;28;20272;-86
2021/06/05 02:43:32;;;;;;;;;;;;;;;6.20;100.00;99836.72;5052808;28;19925;-86
2021/06/05 02:46:06;;;;;;;;;;;;;;;6.05;100.00;99840.47;5052351;28;19925;-86
2021/06/05 02:48:46;;;;;;;;;;;;;;;6.05;100.00;99834.94;5035544;28;19928;-87
2021/06/05 02:51:17;;;;;;;;;;;;;;;6.15;100.00;99840.63;5040944;28;19953;-86
2021/06/05 02:53:46;;;;;;;;;;;;;;;6.19;100.00;99846.22;5035185;28;20447;-86
2021/06/05 02:56:14;;;;;;;;;;;;;;;6.27;100.00;99842.38;5051958;28;19929;-87
2021/06/05 02:58:43;;;;;;;;;;;;;;;6.30;100.00;99847.19;5052251;28;19970;-85
2021/06/05 03:01:14;;;;;;;;;;;;;;;6.13;100.00;99842.19;5035922;28;19925;-85
2021/06/05 03:03:43;;;;;;;;;;;;;;;6.01;100.00;99851.53;5072453;28;20402;-83
2021/06/05 03:06:10;;;;;;;;;;;;;;;6.02;100.00;99841.22;5039452;28;19925;-83
2021/06/05 03:08:39;;;;;;;;;;;;;;;6.02;100.00;99852.31;5039211;28;20374;-83
2021/06/05 03:11:09;;;;;;;;;;;;;;;5.99;100.00;99842.78;5055777;28;19925;-83
2021/06/05 03:13:37;;;;;;;;;;;;;;;5.84;100.00;99854.03;5056773;28;19982;-82
2021/06/05 03:16:05;;;;;;;;;;;;;;;5.95;100.00;99849.47;5056420;28;20065;-83
2021/06/05 03:21:36;;;;;;;;;;;;;;;6.12;100.00;99846.16;5055717;28;19933;-83
2021/06/05 03:24:21;;;;;;;;;;;;;;;6.10;100.00;99837.38;5054366;28;19950;-83
2021/06/05 03:26:50;;;;;;;;;;;;;;;5.94;100.00;99840.31;5053001;28;19925;-83
2021/06/05 03:29:21;;;;;;;;;;;;;;;5.83;100.00;99844.13;5052587;28;19935;-83
2021/06/05 03:31:55;;;;;;;;;;;;;;;5.85;100.00;99841.75;5071332;28;20415;-83
2021/06/05 03:34:24;;;;;;;;;;;;;;;5.83;100.00;99844.91;5053654;28;19929;-83
2021/06/05 03:36:52;;;;;;;;;;;;;;;5.89;100.00;99842.63;5053917;28;19929;-83
2021/06/05 03:39:21;;;;;;;;;;;;;;;5.90;100.00;99841.44;5070295;28;20007;-83
2021/06/05 03:41:49;;;;;;;;;;;;;;;5.89;100.00;99848.19;5053958;28;20358;-83
2021/06/05 03:44:19;;;;;;;;;;;;;;;5.87;100.00;99842.19;5070274;28;19931;-83
2021/06/05 03:46:50;;;;;;;;;;;;;;;5.88;100.00;99850.16;5053818;28;20273;-83
2021/06/05 03:49:18;;;;;;;;;;;;;;;5.70;100.00;99851.00;5070383;28;20019;-83
2021/06/05 03:51:45;;;;;;;;;;;;;;;5.66;100.00;99847.38;5037137;28;19929;-83
2021/06/05 03:54:13;;;;;;;;;;;;;;;5.72;100.00;99845.91;5070526;28;19925;-83
2021/06/05 03:56:41;;;;;;;;;;;;;;;5.81;100.00;99846.44;5053477;28;19925;-83
2021/06/05 03:59:10;;;;;;;;;;;;;;;5.92;100.00;99853.78;5053934;28;19947;-83
2021/06/05 04:01:37;;;;;;;;;;;;;;;5.86;100.00;99855.25;5053542;28;19925;-83
2021/06/05 04:04:05;;;;;;;;;;;;;;;5.78;100.00;99849.94;5036530;28;20009;-83
2021/06/05 04:06:33;;;;;;;;;;;;;;;5.73;100.00;99851.06;5053602;28;19925;-83
2021/06/05 04:09:01;;;;;;;;;;;;;;;5.70;100.00;99853.78;5052704;28;20023;-83
2021/06/05 04:11:29;;;;;;;;;;;;;;;5.72;100.00;99866.13;5053343;28;19925;-83
2021/06/05 04:13:57;;;;;;;;;;;;;;;5.81;100.00;99857.53;5051943;28;19947;-83
2021/06/05 04:16:24;;;;;;;;;;;;;;;5.75;100.00;99859.81;5054322;28;19954;-83
2021/06/05 04:18:51;;;;;;;;;;;;;;;5.72;100.00;99849.47;5052672;28;20002;-83
2021/06/05 04:21:20;;;;;;;;;;;;;;;5.76;100.00;99857.84;5053051;28;19992;-83
2021/06/05 04:23:47;;;;;;;;;;;;;;;5.82;100.00;99854.41;5054054;28;19925;-83
2021/06/05 04:26:15;;;;;;;;;;;;;;;5.99;100.00;99847.53;5053163;28;19928;-83
2021/06/05 04:28:42;;;;;;;;;;;;;;;6.18;100.00;99852.97;5054439;28;19931;-83
2021/06/05 04:31:11;;;;;;;;;;;;;;;6.15;100.00;99856.50;5053795;28;19928;-83
2021/06/05 04:33:38;;;;;;;;;;;;;;;6.22;100.00;99851.03;5053828;28;19925;-83
2021/06/05 04:36:13;;;;;;;;;;;;;;;6.21;100.00;99849.44;5036202;28;19925;-83
2021/06/05 04:38:40;;;;;;;;;;;;;;;5.97;100.00;99855.44;5053721;28;19964;-83
2021/06/05 04:41:10;;;;;;;;;;;;;;;5.92;100.00;99858.53;5052671;28;20047;-83
2021/06/05 04:43:38;;;;;;;;;;;;;;;6.03;100.00;99849.19;5069384;28;19925;-83
2021/06/05 04:46:06;;;;;;;;;;;;;;;6.09;100.00;99850.44;5052447;28;20019;-83
2021/06/05 04:48:34;;;;;;;;;;;;;;;6.16;100.00;99853.34;5053674;28;20348;-83
2021/06/05 04:51:03;;;;;;;;;;;;;;;6.46;100.00;99854.16;5036215;28;19924;-83
2021/06/05 04:53:30;;;;;;;;;;;;;;;6.64;100.00;99857.94;5052368;28;19975;-83
2021/06/05 04:55:57;;;;;;;;;;;;;;;6.71;100.00;99860.00;5053853;28;19931;-83
2021/06/05 04:58:24;;;;;;;;;;;;;;;6.74;100.00;99862.81;5053565;28;19982;-83
2021/06/05 05:00:53;;;;;;;;;;;;;;;6.66;100.00;99857.56;5052231;28;19928;-83
2021/06/05 05:03:22;;;;;;;;;;;;;;;6.61;100.00;99857.88;5019365;28;19925;-83
2021/06/05 05:05:50;;;;;;;;;;;;;;;6.50;100.00;99857.75;5035993;28;19926;-83
2021/06/05 05:08:18;;;;;;;;;;;;;;;6.43;100.00;99859.63;5052001;28;19931;-83
2021/06/05 05:10:47;;;;;;;;;;;;;;;6.50;100.00;99856.94;5051960;28;20016;-83
2021/06/05 05:13:17;;;;;;;;;;;;;;;6.76;100.00;99862.44;5052158;28;20071;-83
2021/06/05 05:15:44;;;;;;;;;;;;;;;7.06;100.00;99868.72;5051759;28;19935;-83
2021/06/05 05:18:12;;;;;;;;;;;;;;;7.28;100.00;99873.34;5052198;28;19929;-83
2021/06/05 05:20:39;;;;;;;;;;;;;;;7.50;100.00;99869.56;5052168;28;19932;-83
2021/06/05 05:23:09;;;;;;;;;;;;;;;7.36;100.00;99875.00;5052104;28;19962;-83
2021/06/05 05:25:37;;;;;;;;;;;;;;;7.43;100.00;99880.63;5051493;28;19932;-83
2021/06/05 05:28:05;;;;;;;;;;;;;;;7.55;100.00;99877.56;5035488;28;19940;-83
2021/06/05 05:30:34;;;;;;;;;;;;;;;7.75;100.00;99878.94;5051731;28;19925;-83
2021/06/05 05:33:01;;;;;;;;;;;;;;;7.94;100.00;99872.28;5053246;28;19931;-83
2021/06/05 05:35:28;;;;;;;;;;;;;;;8.09;100.00;99885.94;5034976;28;19954;-83
2021/06/05 05:37:56;;;;;;;;;;;;;;;8.60;100.00;99886.66;5052818;28;19931;-83
2021/06/05 05:40:26;;;;;;;;;;;;;;;9.03;100.00;99890.41;5051778;28;19928;-84
2021/06/05 05:42:53;;;;;;;;;;;;;;;9.33;100.00;99892.91;5051580;28;20012;-83
2021/06/05 05:45:22;;;;;;;;;;;;;;;10.00;100.00;99882.56;5052548;28;20264;-83
2021/06/05 05:47:49;;;;;;;;;;;;;;;11.30;100.00;99894.16;5035067;28;19925;-83
2021/06/05 05:50:17;;;;;;;;;;;;;;;12.65;100.00;99893.44;5054040;28;19925;-83
2021/06/05 05:52:45;;;;;;;;;;;;;;;13.37;100.00;99889.34;5069787;28;19936;-84
2021/06/05 05:55:13;;;;;;;;;;;;;;;13.54;100.00;99865.81;5036558;28;20011;-83
2021/06/05 05:57:40;;;;;;;;;;;;;;;13.86;100.00;99856.88;5082478;28;19926;-84
2021/06/05 06:00:09;;;;;;;;;;;;;;;14.10;100.00;99847.25;5048714;28;19946;-84
2021/06/05 06:03:04;;;;;;;;;;;;;;;14.63;100.00;99841.41;5050304;28;19924;-84
2021/06/05 06:05:33;;;;;;;;;;;;;;;15.08;100.00;99825.59;5052433;28;19956;-84
2021/06/05 06:08:00;;;;;;;;;;;;;;;15.67;100.00;99814.19;5036211;28;19925;-83
2021/06/05 06:10:27;;;;;;;;;;;;;;;15.81;100.00;99803.34;5086340;28;20013;-84
2021/06/05 06:12:54;;;;;;;;;;;;;;;16.18;100.00;99790.69;5052707;28;20357;-84
2021/06/05 06:15:24;;;;;;;;;;;;;;;16.23;100.00;99790.97;5085410;28;19925;-84
2021/06/05 06:17:52;;;;;;;;;;;;;;;16.05;100.00;99782.19;5050533;28;19925;-86
2021/06/05 06:20:21;;;;;;;;;;;;;;;16.21;100.00;99782.16;5033921;28;20414;-89
2021/06/05 06:22:49;;;;;;;;;;;;;;;16.30;100.00;99786.38;5056589;28;19925;-83
2021/06/05 06:25:19;;;;;;;;;;;;;;;15.66;100.00;99785.22;5052364;28;19929;-91
2021/06/05 06:27:48;;;;;;;;;;;;;;;15.53;100.00;99784.34;5046718;28;20051;-87
2021/06/05 06:30:17;;;;;;;;;;;;;;;15.66;100.00;99793.66;5069592;28;19956;-87
2021/06/05 06:32:51;;;;;;;;;;;;;;;16.23;100.00;99779.69;5035888;28;20372;-86
2021/06/05 06:35:22;;;;;;;;;;;;;;;16.42;100.00;99783.59;5068650;28;20396;-88
2021/06/05 06:37:49;;;;;;;;;;;;;;;16.14;100.00;99778.75;5055713;28;20015;-86
2021/06/05 06:40:19;;;;;;;;;;;;;;;15.67;100.00;99774.75;5055450;28;19929;-85
2021/06/05 06:42:46;;;;;;;;;;;;;;;15.78;100.00;99778.88;5055989;28;20376;-84
2021/06/05 06:45:13;;;;;;;;;;;;;;;16.79;100.00;99782.16;5057511;28;20003;-85
2021/06/05 06:47:40;;;;;;;;;;;;;;;18.32;100.00;99777.50;5072672;28;19979;-86
2021/06/05 06:50:09;;;;;;;;;;;;;;;19.73;100.00;99763.06;5038921;28;20011;-87
2021/06/05 06:52:36;;;;;;;;;;;;;;;20.58;100.00;99759.41;5039726;28;20475;-86
2021/06/05 06:55:04;;;;;;;;;;;;;;;21.67;100.00;99746.44;5056577;28;19948;-82
2021/06/05 06:57:31;;;;;;;;;;;;;;;22.12;100.00;99760.38;5056187;28;19932;-83
2021/06/05 06:59:58;;;;;;;;;;;;;;;22.44;100.00;99756.66;5056357;28;19925;-82
2021/06/05 07:02:26;;;;;;;;;;;;;;;23.50;100.00;99754.44;5053011;28;20022;-82
2021/06/05 07:04:54;;;;;;;;;;;;;;;23.81;100.00;99751.03;5075450;28;19924;-82
2021/06/05 07:07:22;;;;;;;;;;;;;;;23.86;100.00;99747.44;5076866;28;19924;-82
2021/06/05 07:09:49;;;;;;;;;;;;;;;23.90;100.00;99739.47;5096649;28;19925;-82
2021/06/05 07:12:17;;;;;;;;;;;;;;;24.62;100.00;99741.16;5057778;28;20314;-83
2021/06/05 07:14:44;;;;;;;;;;;;;;;25.37;100.00;99730.19;5058074;28;19925;-83
2021/06/05 07:17:11;;;;;;;;;;;;;;;24.57;100.00;99734.09;5061859;28;19940;-83
2021/06/05 07:19:38;;;;;;;;;;;;;;;25.02;100.00;99728.84;5074149;28;19931;-82
2021/06/05 07:22:06;;;;;;;;;;;;;;;24.73;100.00;99735.59;5063803;28;19938;-82
2021/06/05 07:24:33;;;;;;;;;;;;;;;24.79;100.00;99736.44;5058128;28;20036;-83
2021/06/05 07:27:00;;;;;;;;;;;;;;;25.09;100.00;99729.19;5058522;28;20015;-83
2021/06/05 07:29:27;;;;;;;;;;;;;;;25.51;100.00;99726.41;5054770;28;20008;-83
2021/06/05 07:31:55;;;;;;;;;;;;;;;23.75;100.00;99735.88;5054456;28;19940;-82
2021/06/05 07:34:24;;;;;;;;;;;;;;;24.75;100.00;99733.00;5057998;28;20312;-82
2021/06/05 07:36:56;;;;;;;;;;;;;;;25.02;100.00;99723.13;5057825;28;20019;-82
2021/06/05 07:39:25;;;;;;;;;;;;;;;26.07;100.00;99728.31;5055318;28;19929;-81
2021/06/05 07:41:54;;;;;;;;;;;;;;;25.48;100.00;99723.78;5069178;28;19929;-82
2021/06/05 07:44:22;;;;;;;;;;;;;;;26.30;100.00;99730.00;5051377;28;20006;-83
2021/06/05 07:46:53;;;;;;;;;;;;;;;26.13;100.00;99736.94;5052506;28;19932;-82
2021/06/05 07:49:23;;;;;;;;;;;;;;;26.41;100.00;99732.91;5051307;28;20014;-81
2021/06/05 07:51:51;;;;;;;;;;;;;;;26.49;100.00;99725.34;5084183;28;19933;-82
2021/06/05 07:54:18;;;;;;;;;;;;;;;26.70;100.00;99728.06;5079236;28;20008;-82
2021/06/05 07:56:48;;;;;;;;;;;;;;;27.24;100.00;99721.59;5054147;28;19928;-83
2021/06/05 07:59:20;;;;;;;;;;;;;;;27.49;100.00;99714.78;5051873;28;19933;-80
2021/06/05 08:01:48;;;;;;;;;;;;;;;27.66;100.00;99717.63;5048965;28;19936;-81
2021/06/05 08:04:17;;;;;;;;;;;;;;;27.97;100.00;99717.34;5053356;28;19925;-82
2021/06/05 08:06:45;;;;;;;;;;;;;;;27.04;100.00;99713.22;5054846;28;20021;-82
2021/06/05 08:09:12;;;;;;;;;;;;;;;25.53;100.00;99723.84;5074085;28;19925;-80
2021/06/05 08:11:41;;;;;;;;;;;;;;;25.56;100.00;99717.09;5046127;28;19925;-84
2021/06/05 08:14:09;;;;;;;;;;;;;;;25.27;100.00;99711.66;5050605;28;19933;-82
2021/06/05 08:16:37;;;;;;;;;;;;;;;25.86;100.00;99726.91;5080801;28;19929;-82
2021/06/05 08:19:05;;;;;;;;;;;;;;;23.91;100.00;99721.06;5053406;28;19963;-84
2021/06/05 08:21:33;;;;;;;;;;;;;;;25.45;100.00;99727.66;5055388;28;19955;-82
2021/06/05 08:24:00;;;;;;;;;;;;;;;26.37;100.00;99718.03;5046560;28;19932;-82
2021/06/05 08:26:27;;;;;;;;;;;;;;;26.80;100.00;99717.88;5039221;28;19967;-85
2021/06/05 08:28:55;;;;;;;;;;;;;;;27.34;100.00;99699.94;5054357;28;19987;-84
2021/06/05 08:31:22;;;;;;;;;;;;;;;26.62;100.00;99704.03;5070826;28;19932;-81
2021/06/05 08:33:49;;;;;;;;;;;;;;;27.31;100.00;99691.63;5050640;28;19936;-82
2021/06/05 08:36:20;;;;;;;;;;;;;;;26.32;100.00;99707.31;5043603;28;19924;-83
2021/06/05 08:38:47;;;;;;;;;;;;;;;24.26;100.00;99710.38;5046541;28;20307;-84
2021/06/05 08:41:25;;;;;;;;;;;;;;;21.93;100.00;99724.78;5055164;28;19956;-83
2021/06/05 08:44:03;;;;;;;;;;;;;;;22.06;100.00;99722.50;5047559;28;20019;-84
2021/06/05 08:46:33;;;;;;;;;;;;;;;22.63;100.00;99714.56;5041560;28;19933;-83
2021/06/05 08:49:02;;;;;;;;;;;;;;;23.78;100.00;99717.78;5049603;28;19925;-85
2021/06/05 08:51:48;;;;;;;;;;;;;;;23.69;100.00;99710.13;5042958;28;19931;-85
2021/06/05 08:54:18;;;;;;;;;;;;;;;25.25;100.00;99710.59;5040382;28;19925;-84
2021/06/05 08:56:46;;;;;;;;;;;;;;;25.75;100.00;99695.34;5042222;28;19925;-85
2021/06/05 08:59:19;;;;;;;;;;;;;;;26.03;100.00;99696.31;5035138;28;19925;-84
2021/06/05 09:01:55;;;;;;;;;;;;;;;24.62;100.00;99709.72;5044369;28;20022;-83
2021/06/05 09:04:47;;;;;;;;;;;;;;;24.80;100.00;99703.69;5017484;28;19972;-84
2021/06/05 09:07:15;;;;;;;;;;;;;;;23.69;100.00;99700.78;5045797;28;19925;-83
2021/06/05 09:09:43;;;;;;;;;;;;;;;22.74;100.00;99709.88;5042292;28;20449;-83
2021/06/05 09:12:11;;;;;;;;;;;;;;;23.20;100.00;99712.97;5040764;28;19971;-83
2021/06/05 09:14:39;;;;;;;;;;;;;;;23.93;100.00;99712.78;5047515;28;20016;-83
2021/06/05 09:17:56;;;;;;;;;;;;;;;24.44;100.00;99708.00;5078129;28;19932;-83
2021/06/05 09:20:25;;;;;;;;;;;;;;;24.34;100.00;99694.38;5047349;28;19925;-82
2021/06/05 09:22:53;;;;;;;;;;;;;;;23.91;100.00;99703.94;5043792;28;20039;-82
2021/06/05 09:25:35;;;;;;;;;;;;;;;23.31;100.00;99710.31;5048567;28;19940;-82
2021/06/05 09:28:14;;;;;;;;;;;;;;;23.09;100.00;99707.91;5044119;28;19931;-83
2021/06/05 09:30:42;;;;;;;;;;;;;;;22.93;100.00;99701.91;5048073;28;20360;-83
2021/06/05 09:33:11;;;;;;;;;;;;;;;23.16;100.00;99711.63;5052487;28;19931;-83
2021/06/05 09:35:44;;;;;;;;;;;;;;;22.53;100.00;99715.94;5035633;28;20407;-82
2021/06/05 09:38:13;;;;;;;;;;;;;;;22.12;100.00;99714.84;5047280;28;19932;-83
2021/06/05 09:40:56;;;;;;;;;;;;;;;21.22;100.00;99726.72;5053817;28;20382;-82
2021/06/05 09:43:25;;;;;;;;;;;;;;;21.12;100.00;99725.22;5053747;28;19932;-82
2021/06/05 09:46:13;;;;;;;;;;;;;;;21.10;100.00;99716.38;5053560;28;19925;-82
2021/06/05 09:48:42;;;;;;;;;;;;;;;20.87;100.00;99731.28;5053332;28;20007;-82
2021/06/05 09:51:28;;;;;;;;;;;;;;;20.80;100.00;99728.75;5053672;28;20023;-83
2021/06/05 09:54:11;;;;;;;;;;;;;;;21.33;100.00;99724.16;5053127;28;20310;-83
2021/06/05 09:56:43;;;;;;;;;;;;;;;21.77;100.00;99721.56;5052071;28;19925;-83
2021/06/05 09:59:16;;;;;;;;;;;;;;;21.80;100.00;99729.16;5053325;28;20020;-83
2021/06/05 10:01:56;;;;;;;;;;;;;;;20.97;100.00;99722.28;5053328;28;20276;-83
2021/06/05 10:04:24;;;;;;;;;;;;;;;20.81;100.00;99727.50;5052525;28;19924;-83
2021/06/05 10:06:53;;;;;;;;;;;;;;;20.92;100.00;99737.09;5052186;28;19925;-83
2021/06/05 10:09:26;;;;;;;;;;;;;;;21.29;100.00;99732.09;5052291;28;20299;-83
2021/06/05 10:12:06;;;;;;;;;;;;;;;21.23;100.00;99728.31;5051227;28;19925;-83
2021/06/05 10:14:37;;;;;;;;;;;;;;;21.19;100.00;99727.69;5038380;28;19978;-83
2021/06/05 10:17:14;;;;;;;;;;;;;;;21.16;100.00;99742.88;5053435;28;20011;-83
2021/06/05 10:19:43;;;;;;;;;;;;;;;20.74;100.00;99733.50;5041292;28;20375;-83
2021/06/05 10:22:11;;;;;;;;;;;;;;;21.29;100.00;99734.94;5053300;28;19929;-83
2021/06/05 10:24:38;;;;;;;;;;;;;;;21.46;100.00;99716.22;5053273;28;21398;-83
2021/06/05 10:27:13;;;;;;;;;;;;;;;21.55;100.00;99721.84;5053290;28;20392;-83
2021/06/05 10:29:42;;;;;;;;;;;;;;;21.21;100.00;99710.97;5049568;28;19932;-83
2021/06/05 10:32:18;;;;;;;;;;;;;;;21.72;100.00;99719.38;5053297;28;19925;-83
2021/06/05 10:34:52;;;;;;;;;;;;;;;20.70;100.00;99722.31;5053172;28;19951;-83
2021/06/05 10:37:24;;;;;;;;;;;;;;;21.17;100.00;99722.50;5041010;28;19925;-83
2021/06/05 10:39:52;;;;;;;;;;;;;;;20.39;100.00;99723.75;5035080;28;20269;-83
2021/06/05 10:42:23;;;;;;;;;;;;;;;20.85;100.00;99722.44;5052950;28;19928;-83
2021/06/05 10:44:50;;;;;;;;;;;;;;;21.22;100.00;99721.06;5051723;28;20315;-83
2021/06/05 10:47:28;;;;;;;;;;;;;;;21.10;100.00;99705.78;5052116;28;20310;-83
2021/06/05 10:50:02;;;;;;;;;;;;;;;21.11;100.00;99720.81;5051842;28;19932;-84
2021/06/05 10:52:32;;;;;;;;;;;;;;;20.60;100.00;99719.97;5052023;28;20015;-83
2021/06/05 10:55:14;;;;;;;;;;;;;;;20.28;100.00;99712.88;5068148;28;20019;-82
2021/06/05 10:57:43;;;;;;;;;;;;;;;20.55;100.00;99712.09;5052858;28;19928;-83
2021/06/05 11:00:26;;;;;;;;;;;;;;;20.60;100.00;99714.28;5051538;28;19932;-83
2021/06/05 11:02:57;;;;;;;;;;;;;;;20.25;100.00;99704.56;5052909;28;19925;-83
2021/06/05 11:05:28;;;;;;;;;;;;;;;20.68;100.00;99709.84;5052706;28;20438;-83
2021/06/05 11:08:08;;;;;;;;;;;;;;;20.60;100.00;99719.97;5051503;28;20014;-83
2021/06/05 11:10:47;;;;;;;;;;;;;;;20.46;100.00;99715.72;5085112;28;19984;-83
2021/06/05 11:13:37;;;;;;;;;;;;;;;20.24;100.00;99722.81;5053095;28;19932;-83
2021/06/05 11:16:12;;;;;;;;;;;;;;;20.22;100.00;99714.03;5034980;28;20265;-83
2021/06/05 11:18:43;;;;;;;;;;;;;;;20.12;100.00;99718.88;5051712;28;19978;-83
2021/06/05 11:21:20;;;;;;;;;;;;;;;20.27;100.00;99713.38;5072671;28;20368;-85
2021/06/05 11:23:56;;;;;;;;;;;;;;;19.94;100.00;99718.06;5071726;28;19976;-86
2021/06/05 11:26:33;;;;;;;;;;;;;;;19.85;100.00;99715.22;5055831;28;19974;-86
2021/06/05 11:29:23;;;;;;;;;;;;;;;19.97;100.00;99712.25;5055437;28;19932;-85
2021/06/05 11:31:51;;;;;;;;;;;;;;;20.05;100.00;99712.72;5038553;28;20376;-84
2021/06/05 11:34:36;;;;;;;;;;;;;;;19.93;100.00;99710.81;5051715;28;19928;-83
2021/06/05 11:37:15;;;;;;;;;;;;;;;19.73;100.00;99708.44;5080107;28;19960;-83
2021/06/05 11:39:50;;;;;;;;;;;;;;;19.76;100.00;99704.66;5070824;28;20380;-84
2021/06/05 11:42:20;;;;;;;;;;;;;;;20.19;100.00;99695.09;5054055;28;19971;-84
2021/06/05 11:45:10;;;;;;;;;;;;;;;20.79;100.00;99701.63;5055723;28;19925;-84
2021/06/05 11:47:39;;;;;;;;;;;;;;;21.20;100.00;99695.19;5043800;28;19929;-83
2021/06/05 11:50:07;;;;;;;;;;;;;;;21.02;100.00;99695.28;5071355;28;19928;-83
2021/06/05 11:52:37;;;;;;;;;;;;;;;20.82;100.00;99690.09;5056178;28;20337;-82
2021/06/05 11:55:36;;;;;;;;;;;;;;;20.98;100.00;99689.75;5056258;28;19932;-83
2021/06/05 11:58:06;;;;;;;;;;;;;;;21.43;100.00;99681.00;5043370;28;20422;-82
2021/06/05 12:00:33;;;;;;;;;;;;;;;21.33;100.00;99681.53;5056301;28;19925;-82
2021/06/05 12:03:21;;;;;;;;;;;;;;;21.01;100.00;99670.94;5054488;28;19932;-82
2021/06/05 12:05:49;;;;;;;;;;;;;;;21.19;100.00;99670.88;5087899;28;19928;-81
2021/06/05 12:08:22;;;;;;;;;;;;;;;21.00;100.00;99667.34;5070730;28;19978;-82
2021/06/05 12:10:50;;;;;;;;;;;;;;;21.26;100.00;99681.91;5055941;28;19924;-83
2021/06/05 12:13:21;;;;;;;;;;;;;;;21.20;100.00;99678.13;5055581;28;19940;-82
2021/06/05 12:15:48;;;;;;;;;;;;;;;21.48;100.00;99676.72;5086085;28;19936;-83
2021/06/05 12:18:23;;;;;;;;;;;;;;;20.63;100.00;99667.91;5054515;28;19932;-83
2021/06/05 12:20:55;;;;;;;;;;;;;;;20.34;100.00;99670.50;5054371;28;19975;-83
2021/06/05 12:23:36;;;;;;;;;;;;;;;20.88;100.00;99673.19;5088034;28;19983;-82
2021/06/05 12:26:17;;;;;;;;;;;;;;;21.06;100.00;99668.25;5055615;28;19960;-82
2021/06/05 12:28:47;;;;;;;;;;;;;;;21.42;100.00;99670.13;5055575;28;19924;-83
2021/06/05 12:31:19;;;;;;;;;;;;;;;20.99;100.00;99679.19;5055462;28;19925;-83
2021/06/05 12:33:53;;;;;;;;;;;;;;;21.16;100.00;99671.81;5055239;28;19932;-84
2021/06/05 12:36:23;;;;;;;;;;;;;;;21.50;100.00;99668.50;5053899;28;20027;-83
2021/06/05 12:38:51;;;;;;;;;;;;;;;21.21;100.00;99663.44;5054314;28;19931;-85
2021/06/05 12:41:38;;;;;;;;;;;;;;;21.31;100.00;99662.13;5055351;28;19929;-82
2021/06/05 12:44:06;;;;;;;;;;;;;;;21.24;100.00;99661.69;5054082;28;19925;-83
2021/06/05 12:46:34;;;;;;;;;;;;;;;21.73;100.00;99664.06;5052517;28;19925;-82
2021/06/05 12:49:06;;;;;;;;;;;;;;;21.99;100.00;99660.25;5054098;28;19925;-83
2021/06/05 12:51:39;;;;;;;;;;;;;;;21.73;100.00;99647.81;5054414;28;19925;-83
2021/06/05 12:54:09;;;;;;;;;;;;;;;21.65;100.00;99654.31;5053324;28;20398;-83
2021/06/05 12:56:39;;;;;;;;;;;;;;;21.66;100.00;99653.84;5054092;28;19936;-83
2021/06/05 12:59:09;;;;;;;;;;;;;;;21.31;100.00;99652.81;5054479;28;20328;-83
2021/06/05 13:01:42;;;;;;;;;;;;;;;20.55;100.00;99655.31;5053373;28;19936;-82
2021/06/05 13:04:27;;;;;;;;;;;;;;;20.77;100.00;99665.19;5047478;28;20031;-82